Time;durP1;ratioP1;P1;durP2;ratioP2;P2;SDS_P1;SDS_P2;PMS_P1;PMS_P2;Temp;Humidity;BMP_temperature;BMP_pressure;BME280_temperature;BME280_humidity;BME280_pressure;Samples;Min_cycle;Max_cycle;Signal;HPM_P1;HPM_P2
2021/11/02 00:00:16;;;;;;;2.97;2.15;;;;;13.30;99719.00;;;;5056424;28;20182;-81
2021/11/02 00:02:44;;;;;;;2.75;1.80;;;;;13.20;99707.00;;;;5059175;28;20206;-81
2021/11/02 00:05:13;;;;;;;2.90;1.92;;;;;13.20;99716.00;;;;5051676;28;20223;-81
2021/11/02 00:07:40;;;;;;;2.83;2.03;;;;;13.20;99716.00;;;;5070226;28;20210;-82
2021/11/02 00:10:09;;;;;;;2.00;1.67;;;;;13.20;99714.00;;;;5051289;28;20226;-81
2021/11/02 00:12:36;;;;;;;4.10;1.95;;;;;13.20;99710.00;;;;5051353;28;20227;-81
2021/11/02 00:15:06;;;;;;;2.17;1.52;;;;;13.20;99717.00;;;;5064036;28;20198;-81
2021/11/02 00:17:35;;;;;;;1.65;1.38;;;;;13.20;99713.00;;;;5069567;28;20202;-81
2021/11/02 00:20:04;;;;;;;1.75;1.45;;;;;13.20;99716.00;;;;5052346;28;20191;-81
2021/11/02 00:22:34;;;;;;;1.88;1.63;;;;;13.10;99704.00;;;;5050193;28;20654;-81
2021/11/02 00:25:08;;;;;;;1.90;1.67;;;;;13.10;99704.00;;;;5049989;28;20567;-81
2021/11/02 00:27:37;;;;;;;2.17;1.88;;;;;13.10;99696.00;;;;5050994;28;20692;-81
2021/11/02 00:30:11;;;;;;;2.50;2.00;;;;;13.10;99696.00;;;;5059829;28;20668;-81
2021/11/02 00:32:38;;;;;;;2.60;1.80;;;;;13.10;99696.00;;;;5056645;28;20226;-81
2021/11/02 00:35:06;;;;;;;1.95;1.63;;;;;13.00;99694.00;;;;5053482;28;20192;-81
2021/11/02 00:37:34;;;;;;;3.47;1.63;;;;;13.10;99695.00;;;;5050986;28;20215;-82
2021/11/02 00:40:02;;;;;;;2.03;1.60;;;;;13.10;99707.00;;;;5050516;28;20215;-81
2021/11/02 00:42:34;;;;;;;1.85;1.42;;;;;13.00;99704.00;;;;5055131;28;20203;-81
2021/11/02 00:45:03;;;;;;;2.00;1.45;;;;;13.00;99702.00;;;;5049829;28;20200;-81
2021/11/02 00:47:32;;;;;;;3.17;1.77;;;;;13.00;99698.00;;;;5062114;28;20191;-82
2021/11/02 00:50:00;;;;;;;1.85;1.63;;;;;13.00;99700.00;;;;5054301;28;20648;-82
2021/11/02 00:52:29;;;;;;;2.13;1.58;;;;;13.00;99703.00;;;;5050506;28;20223;-81
2021/11/02 00:54:56;;;;;;;2.13;1.52;;;;;13.00;99693.00;;;;5062219;28;20191;-81
2021/11/02 00:57:24;;;;;;;3.40;1.75;;;;;13.00;99704.00;;;;5069536;28;20304;-81
2021/11/02 00:59:51;;;;;;;2.78;1.80;;;;;13.00;99704.00;;;;5055896;28;20201;-81
2021/11/02 01:02:19;;;;;;;2.55;1.25;;;;;13.00;99707.00;;;;5061893;28;20222;-82
2021/11/02 01:04:48;;;;;;;1.85;1.33;;;;;12.90;99705.00;;;;5051010;28;20691;-81
2021/11/02 01:07:16;;;;;;;2.25;1.27;;;;;13.00;99707.00;;;;5066895;28;20211;-81
2021/11/02 01:09:44;;;;;;;1.67;1.40;;;;;13.00;99711.00;;;;5051931;28;20199;-81
2021/11/02 01:12:12;;;;;;;1.90;1.58;;;;;12.90;99705.00;;;;5049550;28;20223;-81
2021/11/02 01:14:39;;;;;;;3.92;1.98;;;;;12.90;99705.00;;;;5049605;28;20203;-81
2021/11/02 01:17:07;;;;;;;2.78;1.83;;;;;12.90;99707.00;;;;5049811;28;21031;-81
2021/11/02 01:19:34;;;;;;;2.78;1.73;;;;;12.90;99706.00;;;;5049578;28;20215;-81
2021/11/02 01:22:03;;;;;;;2.05;1.60;;;;;12.90;99703.00;;;;5058588;28;20203;-81
2021/11/02 01:24:30;;;;;;;2.03;1.60;;;;;12.90;99711.00;;;;5053959;28;20202;-81
2021/11/02 01:26:58;;;;;;;2.20;1.88;;;;;12.90;99704.00;;;;5078142;28;20206;-81
2021/11/02 01:29:25;;;;;;;1.98;1.67;;;;;12.90;99696.00;;;;5064036;28;20203;-81
2021/11/02 01:31:52;;;;;;;2.33;1.83;;;;;12.90;99700.00;;;;5064201;28;20187;-81
2021/11/02 01:34:20;;;;;;;3.45;2.05;;;;;12.80;99703.00;;;;5056684;28;20232;-81
2021/11/02 01:36:48;;;;;;;2.08;1.80;;;;;12.80;99701.00;;;;5057869;28;20202;-81
2021/11/02 01:39:17;;;;;;;2.42;1.63;;;;;12.80;99699.00;;;;5057994;28;20209;-81
2021/11/02 01:41:44;;;;;;;2.42;1.70;;;;;12.80;99697.00;;;;5061169;28;20198;-81
2021/11/02 01:44:11;;;;;;;2.35;1.65;;;;;12.80;99696.00;;;;5067981;28;20195;-81
2021/11/02 01:46:40;;;;;;;2.67;2.00;;;;;12.80;99695.00;;;;5059439;28;20195;-81
2021/11/02 01:49:08;;;;;;;2.45;1.67;;;;;12.80;99693.00;;;;5058884;28;20196;-82
2021/11/02 01:51:36;;;;;;;2.42;1.73;;;;;12.80;99692.00;;;;5049726;28;20196;-81
2021/11/02 01:54:05;;;;;;;4.03;1.83;;;;;12.80;99693.00;;;;5052454;28;20215;-81
2021/11/02 01:56:35;;;;;;;2.70;2.03;;;;;12.80;99687.00;;;;5049899;28;20199;-81
2021/11/02 01:59:03;;;;;;;3.17;1.80;;;;;12.70;99690.00;;;;5049209;28;20700;-81
2021/11/02 02:01:37;;;;;;;3.30;1.88;;;;;12.70;99689.00;;;;5068111;28;20203;-81
2021/11/02 02:04:12;;;;;;;1.95;1.55;;;;;12.70;99687.00;;;;5052683;28;20199;-81
2021/11/02 02:06:47;;;;;;;3.25;1.95;;;;;12.70;99680.00;;;;5049542;28;20614;-81
2021/11/02 02:09:20;;;;;;;2.42;1.67;;;;;12.70;99686.00;;;;5057505;28;20206;-81
2021/11/02 02:11:59;;;;;;;2.70;1.75;;;;;12.60;99685.00;;;;5063699;28;20232;-81
2021/11/02 02:14:38;;;;;;;2.90;1.95;;;;;12.70;99680.00;;;;5051970;28;20230;-81
2021/11/02 02:17:12;;;;;;;3.63;2.15;;;;;12.70;99685.00;;;;5048399;28;20199;-81
2021/11/02 02:19:48;;;;;;;2.42;1.60;;;;;12.60;99674.00;;;;5049148;28;20190;-81
2021/11/02 02:22:40;;;;;;;2.85;2.00;;;;;12.60;99678.00;;;;5050023;28;20215;-81
2021/11/02 02:25:31;;;;;;;2.72;1.67;;;;;12.60;99669.00;;;;5054500;28;20312;-81
2021/11/02 02:28:09;;;;;;;3.15;1.80;;;;;12.60;99668.00;;;;5048861;28;20211;-81
2021/11/02 02:30:40;;;;;;;3.22;2.50;;;;;12.60;99660.00;;;;5054402;28;20286;-81
2021/11/02 02:33:09;;;;;;;3.53;2.22;;;;;12.60;99671.00;;;;5056835;28;20227;-81
2021/11/02 02:35:39;;;;;;;3.40;2.08;;;;;12.60;99670.00;;;;5050435;28;20210;-81
2021/11/02 02:38:07;;;;;;;3.22;1.90;;;;;12.60;99668.00;;;;5071580;28;20194;-81
2021/11/02 02:40:36;;;;;;;2.58;1.98;;;;;12.60;99673.00;;;;5049241;28;20203;-81
2021/11/02 02:43:06;;;;;;;3.17;2.33;;;;;12.60;99666.00;;;;5048609;28;20227;-81
2021/11/02 02:45:37;;;;;;;4.25;2.20;;;;;12.60;99672.00;;;;5056739;28;20215;-81
2021/11/02 02:48:06;;;;;;;3.10;2.15;;;;;12.60;99662.00;;;;5048775;28;20257;-81
2021/11/02 02:50:35;;;;;;;3.22;1.98;;;;;12.60;99667.00;;;;5048498;28;20231;-81
2021/11/02 02:53:04;;;;;;;3.90;2.35;;;;;12.60;99668.00;;;;5051577;28;20222;-81
2021/11/02 02:55:32;;;;;;;8.98;2.08;;;;;12.60;99662.00;;;;5048957;28;20206;-82
2021/11/02 02:58:01;;;;;;;4.47;2.47;;;;;12.60;99660.00;;;;5049016;28;20241;-81
2021/11/02 03:00:31;;;;;;;3.42;2.15;;;;;12.60;99668.00;;;;5058883;28;20202;-82
2021/11/02 03:03:02;;;;;;;3.38;1.75;;;;;12.60;99667.00;;;;5048170;28;20210;-82
2021/11/02 03:05:30;;;;;;;2.80;1.92;;;;;12.60;99670.00;;;;5048364;28;20202;-81
2021/11/02 03:07:57;;;;;;;3.75;2.20;;;;;12.60;99668.00;;;;5048029;28;20226;-81
2021/11/02 03:10:25;;;;;;;2.65;1.70;;;;;12.60;99662.00;;;;5067580;28;20595;-81
2021/11/02 03:12:55;;;;;;;2.90;1.90;;;;;12.60;99662.00;;;;5048752;28;20254;-82
2021/11/02 03:15:48;;;;;;;3.42;2.28;;;;;12.50;99662.00;;;;5064718;28;20218;-81
2021/11/02 03:18:31;;;;;;;2.58;1.67;;;;;12.50;99664.00;;;;5050275;28;20199;-81
2021/11/02 03:43:58;;;;;;;4.25;2.08;;;;;12.40;99663.00;;;;5052213;28;20194;-82
2021/11/02 03:49:14;;;;;;;4.80;1.90;;;;;12.40;99676.00;;;;5065986;28;20333;-81
2021/11/02 03:51:59;;;;;;;2.22;1.60;;;;;12.40;99677.00;;;;5051794;28;20574;-81
2021/11/02 03:54:41;;;;;;;3.42;2.00;;;;;12.40;99668.00;;;;5051452;28;20219;-81
2021/11/02 03:57:17;;;;;;;2.50;1.67;;;;;12.30;99670.00;;;;5054936;28;20661;-81
2021/11/02 04:28:06;;;;;;;2.58;1.35;;;;;12.20;99674.00;;;;5050728;28;20210;-82
2021/11/02 04:30:55;;;;;;;2.72;1.60;;;;;12.20;99676.00;;;;5050556;28;20257;-81
2021/11/02 05:07:38;;;;;;;3.15;1.83;;;;;12.20;99691.00;;;;5059341;28;20206;-81
2021/11/02 05:10:27;;;;;;;1.60;1.20;;;;;12.20;99686.00;;;;5063094;28;20668;-81
2021/11/02 05:13:28;;;;;;;2.58;1.67;;;;;12.20;99681.00;;;;5056180;28;20226;-81
2021/11/02 05:46:57;;;;;;;1.75;1.27;;;;;12.40;99689.00;;;;5055361;28;20202;-81
2021/11/02 05:49:47;;;;;;;2.80;1.35;;;;;12.50;99684.00;;;;5055741;28;20738;-81
2021/11/02 05:57:50;;;;;;;2.03;1.58;;;;;12.50;99686.00;;;;5045368;28;20637;-81
2021/11/02 06:00:20;;;;;;;4.53;1.42;;;;;12.60;99680.00;;;;5041014;28;20211;-82
2021/11/02 06:03:06;;;;;;;2.58;1.80;;;;;12.60;99683.00;;;;5038507;28;20602;-82
2021/11/02 06:05:59;;;;;;;2.88;2.05;;;;;12.60;99683.00;;;;5040553;28;20616;-81
2021/11/02 06:08:55;;;;;;;1.80;1.40;;;;;12.60;99677.00;;;;5041505;28;20211;-82
2021/11/02 06:28:24;;;;;;;2.67;1.63;;;;;12.80;99675.00;;;;5038358;28;20703;-80
2021/11/02 06:31:03;;;;;;;2.40;2.20;;;;;12.80;99680.00;;;;5039431;28;20200;-79
2021/11/02 06:33:42;;;;;;;2.92;1.77;;;;;12.80;99675.00;;;;5036195;28;20283;-80
2021/11/02 06:36:18;;;;;;;3.30;2.05;;;;;12.80;99688.00;;;;5034505;28;20203;-80
2021/11/02 06:45:11;;;;;;;3.25;2.25;;;;;12.90;99688.00;;;;5021893;28;20227;-82
2021/11/02 06:48:04;;;;;;;2.33;1.67;;;;;12.80;99699.00;;;;5036055;28;20830;-82
2021/11/02 06:51:04;;;;;;;2.63;1.90;;;;;12.90;99702.00;;;;5038343;28;20223;-81
2021/11/02 06:54:06;;;;;;;2.70;2.00;;;;;12.90;99701.00;;;;5038062;28;20620;-79
2021/11/02 06:59:46;;;;;;;3.28;2.20;;;;;12.90;99701.00;;;;5027574;28;20295;-80
2021/11/02 07:19:53;;;;;;;3.22;1.88;;;;;13.10;99706.00;;;;5040853;28;20199;-79
2021/11/02 07:22:38;;;;;;;5.43;2.03;;;;;13.10;99713.00;;;;5049242;28;20796;-80
2021/11/02 07:25:13;;;;;;;3.83;2.17;;;;;13.20;99706.00;;;;5042604;28;20196;-80
2021/11/02 07:28:02;;;;;;;5.32;2.35;;;;;13.20;99715.00;;;;5028793;28;20696;-80
2021/11/02 08:46:10;;;;;;;4.25;1.95;;;;;14.50;99728.00;;;;5045046;28;20281;-81
2021/11/02 08:48:38;;;;;;;2.85;1.85;;;;;14.60;99726.00;;;;5048419;28;20280;-81
2021/11/02 08:51:05;;;;;;;2.65;1.70;;;;;14.60;99727.00;;;;5048317;28;20218;-81
2021/11/02 08:53:35;;;;;;;2.20;1.80;;;;;14.60;99714.00;;;;5048440;28;20219;-81
2021/11/02 08:56:03;;;;;;;5.15;1.92;;;;;14.70;99714.00;;;;5048380;28;20206;-80
2021/11/02 08:58:31;;;;;;;3.03;2.05;;;;;14.70;99716.00;;;;5035275;28;20201;-80
2021/11/02 09:01:01;;;;;;;3.05;2.28;;;;;14.80;99722.00;;;;5045054;28;20654;-80
2021/11/02 09:03:32;;;;;;;3.33;1.73;;;;;14.80;99722.00;;;;5033845;28;20192;-80
2021/11/02 09:06:03;;;;;;;3.67;2.70;;;;;14.80;99732.00;;;;5048609;28;20195;-81
2021/11/02 09:08:37;;;;;;;3.30;2.50;;;;;14.90;99723.00;;;;5048352;28;20206;-81
2021/11/02 09:11:06;;;;;;;3.42;2.67;;;;;14.90;99731.00;;;;5039457;28;20215;-81
2021/11/02 09:13:35;;;;;;;2.92;2.15;;;;;14.90;99728.00;;;;5028034;28;20204;-81
2021/11/02 09:16:05;;;;;;;3.65;2.85;;;;;15.00;99729.00;;;;5035050;28;20206;-81
2021/11/02 09:18:33;;;;;;;2.67;2.25;;;;;15.00;99736.00;;;;5047144;28;20207;-81
2021/11/02 09:21:01;;;;;;;5.05;2.42;;;;;15.10;99726.00;;;;5046624;28;20704;-80
2021/11/02 09:23:28;;;;;;;2.80;2.35;;;;;15.10;99727.00;;;;5047883;28;20222;-81
2021/11/02 09:25:56;;;;;;;2.88;2.50;;;;;15.10;99732.00;;;;5045842;28;20203;-81
2021/11/02 09:28:26;;;;;;;3.33;2.42;;;;;15.10;99733.00;;;;5036109;28;20680;-81
2021/11/02 09:30:54;;;;;;;2.80;2.15;;;;;15.20;99730.00;;;;5047389;28;20227;-80
2021/11/02 09:33:23;;;;;;;3.88;2.25;;;;;15.20;99735.00;;;;5047044;28;20207;-81
2021/11/02 09:35:58;;;;;;;3.05;2.15;;;;;15.20;99736.00;;;;5041713;28;20203;-81
2021/11/02 09:38:28;;;;;;;5.22;2.58;;;;;15.30;99737.00;;;;5031725;28;20211;-81
2021/11/02 09:41:27;;;;;;;2.45;2.25;;;;;15.30;99743.00;;;;5030990;28;20576;-81
2021/11/02 09:44:36;;;;;;;3.50;2.25;;;;;15.30;99732.00;;;;5030898;28;20673;-81
2021/11/02 09:47:41;;;;;;;2.60;2.05;;;;;15.30;99736.00;;;;5039176;28;20203;-81
2021/11/02 09:50:44;;;;;;;2.28;2.00;;;;;15.30;99742.00;;;;5036923;28;20243;-81
2021/11/02 09:54:00;;;;;;;2.08;1.65;;;;;15.30;99734.00;;;;5032175;28;20242;-79
2021/11/02 09:56:47;;;;;;;2.55;2.03;;;;;15.40;99740.00;;;;5027396;28;20200;-80
2021/11/02 09:59:44;;;;;;;3.55;2.28;;;;;15.30;99741.00;;;;5031333;28;20239;-80
2021/11/02 10:02:36;;;;;;;3.50;2.33;;;;;15.40;99748.00;;;;5028416;28;20208;-80
2021/11/02 10:05:26;;;;;;;3.47;2.58;;;;;15.40;99754.00;;;;5031053;28;20205;-80
2021/11/02 10:08:12;;;;;;;2.97;1.90;;;;;15.40;99748.00;;;;5031426;28;20239;-80
2021/11/02 10:10:53;;;;;;;2.85;2.35;;;;;15.50;99744.00;;;;5032127;28;20256;-81
2021/11/02 10:13:46;;;;;;;4.20;2.55;;;;;15.50;99742.00;;;;5031257;28;20203;-81
2021/11/02 10:16:29;;;;;;;2.92;2.55;;;;;15.50;99748.00;;;;5027688;28;20208;-80
2021/11/02 10:19:35;;;;;;;3.00;2.50;;;;;15.50;99740.00;;;;5030320;28;20561;-80
2021/11/02 10:22:27;;;;;;;2.63;2.30;;;;;15.50;99748.00;;;;5031180;28;20200;-81
2021/11/02 10:25:12;;;;;;;3.28;2.60;;;;;15.50;99745.00;;;;5029193;28;20219;-81
2021/11/02 10:28:02;;;;;;;4.97;2.58;;;;;15.60;99749.00;;;;5031595;28;20204;-81
2021/11/02 10:30:41;;;;;;;2.67;2.33;;;;;15.60;99745.00;;;;5031161;28;20653;-81
2021/11/02 10:33:19;;;;;;;5.35;2.55;;;;;15.60;99749.00;;;;5035298;28;20308;-82
2021/11/02 10:36:04;;;;;;;3.63;3.03;;;;;15.60;99746.00;;;;5051157;28;20195;-81
2021/11/02 10:38:42;;;;;;;3.00;2.42;;;;;15.60;99747.00;;;;5042762;28;20203;-81
2021/11/02 10:41:19;;;;;;;3.40;2.90;;;;;15.70;99742.00;;;;5030799;28;20285;-81
2021/11/02 10:43:59;;;;;;;3.85;2.63;;;;;15.70;99742.00;;;;5030027;28;20196;-81
2021/11/02 10:46:32;;;;;;;3.50;2.63;;;;;15.70;99747.00;;;;5030326;28;20287;-81
2021/11/02 10:49:02;;;;;;;3.72;3.00;;;;;15.80;99740.00;;;;5030115;28;20236;-81
2021/11/02 10:51:39;;;;;;;3.58;2.83;;;;;15.80;99740.00;;;;5029955;28;20228;-82
2021/11/02 10:54:21;;;;;;;2.17;1.98;;;;;15.80;99736.00;;;;5030288;28;20196;-81
2021/11/02 10:57:25;;;;;;;3.60;3.20;;;;;15.80;99737.00;;;;5030936;28;20236;-81
2021/11/02 10:59:56;;;;;;;2.95;2.65;;;;;15.90;99734.00;;;;5029957;28;20741;-81
2021/11/02 11:02:29;;;;;;;3.17;2.83;;;;;15.90;99740.00;;;;5050220;28;20215;-81
2021/11/02 11:04:58;;;;;;;4.30;3.35;;;;;16.00;99742.00;;;;5049814;28;20204;-81
2021/11/02 11:07:27;;;;;;;3.67;3.17;;;;;16.00;99742.00;;;;5050480;28;20207;-81
2021/11/02 11:09:56;;;;;;;3.60;2.90;;;;;16.00;99731.00;;;;5049934;28;20227;-81
2021/11/02 11:12:31;;;;;;;3.60;3.30;;;;;16.00;99734.00;;;;5049774;28;20211;-81
2021/11/02 11:15:03;;;;;;;4.65;3.25;;;;;16.00;99731.00;;;;5049493;28;20214;-82
2021/11/02 11:17:32;;;;;;;4.20;2.72;;;;;16.10;99735.00;;;;5046184;28;20204;-82
2021/11/02 11:20:08;;;;;;;4.05;3.35;;;;;16.00;99733.00;;;;5047443;28;20215;-81
2021/11/02 11:22:41;;;;;;;3.40;3.10;;;;;16.10;99735.00;;;;5049555;28;20199;-81
2021/11/02 11:25:14;;;;;;;4.13;3.30;;;;;16.10;99731.00;;;;5049754;28;20749;-82
2021/11/02 11:27:55;;;;;;;2.97;2.60;;;;;16.10;99722.00;;;;5050040;28;20672;-82
2021/11/02 11:30:26;;;;;;;3.53;2.97;;;;;16.10;99730.00;;;;5049851;28;20219;-82
2021/11/02 11:32:54;;;;;;;3.13;2.88;;;;;16.10;99727.00;;;;5049041;28;20195;-82
2021/11/02 11:35:21;;;;;;;3.28;2.85;;;;;16.10;99719.00;;;;5038585;28;20208;-82
2021/11/02 11:37:50;;;;;;;3.35;3.05;;;;;16.20;99721.00;;;;5041434;28;20207;-81
2021/11/02 11:40:19;;;;;;;2.75;2.55;;;;;16.20;99722.00;;;;5049524;28;20253;-82
2021/11/02 11:42:50;;;;;;;3.28;2.97;;;;;16.20;99718.00;;;;5049816;28;20195;-82
2021/11/02 11:45:19;;;;;;;5.70;3.42;;;;;16.20;99717.00;;;;5049470;28;20218;-81
2021/11/02 11:47:47;;;;;;;3.72;3.10;;;;;16.20;99714.00;;;;5046565;28;20203;-82
2021/11/02 11:50:28;;;;;;;3.92;3.38;;;;;16.10;99708.00;;;;5037912;28;20243;-81
2021/11/02 11:52:59;;;;;;;3.13;2.72;;;;;16.20;99703.00;;;;5029690;28;20876;-81
2021/11/02 11:55:28;;;;;;;3.30;3.00;;;;;16.20;99711.00;;;;5028999;28;20202;-81
2021/11/02 11:58:05;;;;;;;4.10;3.03;;;;;16.20;99702.00;;;;5029222;28;20200;-81
2021/11/02 12:00:32;;;;;;;3.65;3.35;;;;;16.30;99701.00;;;;5029659;28;20196;-81
2021/11/02 12:03:04;;;;;;;3.97;3.28;;;;;16.40;99701.00;;;;5028435;28;20720;-82
2021/11/02 12:05:33;;;;;;;3.30;3.00;;;;;16.50;99691.00;;;;5028813;28;20253;-81
2021/11/02 12:08:09;;;;;;;3.47;3.17;;;;;16.50;99696.00;;;;5034073;28;20200;-81
2021/11/02 12:10:37;;;;;;;3.67;3.15;;;;;16.60;99696.00;;;;5048041;28;20293;-81
2021/11/02 12:13:08;;;;;;;3.33;3.03;;;;;16.70;99695.00;;;;5048163;28;20207;-82
2021/11/02 12:15:46;;;;;;;6.13;3.35;;;;;16.70;99687.00;;;;5048801;28;20195;-81
2021/11/02 12:18:17;;;;;;;4.07;3.15;;;;;16.80;99693.00;;;;5041922;28;20214;-82
2021/11/02 12:20:45;;;;;;;3.20;2.28;;;;;16.80;99691.00;;;;5028390;28;20770;-81
2021/11/02 12:23:20;;;;;;;3.70;2.38;;;;;16.80;99691.00;;;;5028397;28;20192;-82
2021/11/02 12:25:53;;;;;;;3.92;3.15;;;;;16.90;99688.00;;;;5035610;28;20222;-81
2021/11/02 12:28:30;;;;;;;3.17;2.70;;;;;16.90;99690.00;;;;5047986;28;20184;-82
2021/11/02 12:31:03;;;;;;;3.97;3.15;;;;;17.00;99685.00;;;;5048119;28;20318;-81
2021/11/02 12:33:32;;;;;;;3.17;2.47;;;;;17.10;99691.00;;;;5048040;28;20200;-81
2021/11/02 12:36:02;;;;;;;3.22;2.92;;;;;17.10;99678.00;;;;5047493;28;20203;-81
2021/11/02 12:38:32;;;;;;;5.32;2.80;;;;;17.10;99679.00;;;;5031110;28;20204;-81
2021/11/02 12:40:59;;;;;;;3.10;2.80;;;;;17.10;99674.00;;;;5028151;28;20208;-82
2021/11/02 12:43:30;;;;;;;2.95;2.65;;;;;17.10;99681.00;;;;5039540;28;20207;-81
2021/11/02 12:46:00;;;;;;;3.00;2.53;;;;;17.10;99684.00;;;;5048116;28;20199;-81
2021/11/02 12:48:29;;;;;;;2.60;2.35;;;;;17.10;99680.00;;;;5046807;28;20201;-81
2021/11/02 12:50:58;;;;;;;3.13;2.08;;;;;17.10;99685.00;;;;5047311;28;20697;-81
2021/11/02 12:53:26;;;;;;;3.45;3.10;;;;;17.10;99678.00;;;;5045380;28;20203;-82
2021/11/02 12:55:55;;;;;;;3.30;2.75;;;;;17.10;99680.00;;;;5038561;28;20202;-82
2021/11/02 12:58:24;;;;;;;3.10;2.80;;;;;17.20;99678.00;;;;5040426;28;20204;-81
2021/11/02 13:00:58;;;;;;;3.45;2.40;;;;;17.20;99674.00;;;;5032838;28;20208;-81
2021/11/02 13:03:31;;;;;;;2.70;2.42;;;;;17.20;99673.00;;;;5028500;28;20572;-81
2021/11/02 13:06:01;;;;;;;2.53;2.28;;;;;17.20;99674.00;;;;5027552;28;20209;-81
2021/11/02 13:08:34;;;;;;;2.58;2.30;;;;;17.20;99670.00;;;;5028965;28;20274;-81
2021/11/02 13:11:06;;;;;;;3.47;2.60;;;;;17.10;99671.00;;;;5029701;28;20647;-81
2021/11/02 13:13:54;;;;;;;3.28;1.95;;;;;17.10;99670.00;;;;5032574;28;20196;-81
2021/11/02 13:16:24;;;;;;;2.22;1.95;;;;;17.10;99670.00;;;;5032643;28;20204;-81
2021/11/02 13:18:51;;;;;;;2.90;2.53;;;;;17.10;99668.00;;;;5044298;28;20676;-81
2021/11/02 13:21:29;;;;;;;2.58;2.33;;;;;17.10;99680.00;;;;5052126;28;20234;-81
2021/11/02 13:24:02;;;;;;;4.30;2.45;;;;;17.10;99669.00;;;;5051784;28;20603;-81
2021/11/02 13:26:29;;;;;;;2.92;2.45;;;;;17.10;99676.00;;;;5052226;28;20204;-81
2021/11/02 13:29:10;;;;;;;4.00;2.22;;;;;17.00;99675.00;;;;5039471;28;20200;-81
2021/11/02 13:31:39;;;;;;;2.63;2.13;;;;;17.00;99672.00;;;;5048456;28;20315;-81
2021/11/02 13:34:09;;;;;;;3.28;2.30;;;;;17.00;99672.00;;;;5047612;28;20207;-80
2021/11/02 13:36:37;;;;;;;3.45;2.28;;;;;17.00;99670.00;;;;5031964;28;20200;-81
2021/11/02 13:39:06;;;;;;;2.40;2.20;;;;;17.00;99675.00;;;;5031464;28;20196;-81
2021/11/02 13:41:35;;;;;;;2.08;1.73;;;;;16.90;99679.00;;;;5032178;28;20215;-81
2021/11/02 13:44:05;;;;;;;3.08;1.65;;;;;16.90;99683.00;;;;5031608;28;20620;-81
2021/11/02 13:46:35;;;;;;;2.38;1.73;;;;;16.90;99688.00;;;;5037050;28;20203;-81
2021/11/02 13:49:05;;;;;;;2.15;1.83;;;;;16.90;99682.00;;;;5037024;28;20315;-81
2021/11/02 13:51:33;;;;;;;2.65;1.90;;;;;16.90;99672.00;;;;5032691;28;20232;-81
2021/11/02 13:54:01;;;;;;;2.78;1.95;;;;;17.00;99676.00;;;;5030813;28;20195;-81
2021/11/02 13:56:30;;;;;;;2.28;2.03;;;;;17.00;99673.00;;;;5031809;28;20204;-81
2021/11/02 13:58:59;;;;;;;2.15;1.77;;;;;17.00;99676.00;;;;5031151;28;20203;-81
2021/11/02 14:01:29;;;;;;;1.98;1.77;;;;;17.00;99667.00;;;;5031763;28;20193;-81
2021/11/02 14:04:09;;;;;;;4.55;1.90;;;;;17.00;99669.00;;;;5031216;28;20266;-81
2021/11/02 14:06:39;;;;;;;2.22;1.80;;;;;17.00;99676.00;;;;5043528;28;20208;-81
2021/11/02 14:09:10;;;;;;;2.33;2.13;;;;;17.00;99671.00;;;;5031556;28;20204;-81
2021/11/02 14:11:39;;;;;;;2.72;1.80;;;;;17.00;99671.00;;;;5031425;28;20261;-81
2021/11/02 14:14:09;;;;;;;2.72;2.17;;;;;17.00;99666.00;;;;5031473;28;20276;-81
2021/11/02 14:16:40;;;;;;;2.42;1.85;;;;;17.00;99670.00;;;;5031815;28;20666;-81
2021/11/02 14:19:43;;;;;;;2.30;2.08;;;;;16.90;99663.00;;;;5046850;28;20204;-81
2021/11/02 14:22:12;;;;;;;2.05;1.85;;;;;16.90;99660.00;;;;5049742;28;20203;-81
2021/11/02 14:24:41;;;;;;;2.38;2.17;;;;;16.90;99662.00;;;;5050768;28;20277;-81
2021/11/02 14:27:10;;;;;;;2.22;2.03;;;;;16.90;99667.00;;;;5050085;28;20195;-81
2021/11/02 14:29:51;;;;;;;2.72;2.53;;;;;16.80;99669.00;;;;5050089;28;20208;-81
2021/11/02 14:32:44;;;;;;;2.85;2.08;;;;;16.70;99668.00;;;;5049738;28;20227;-81
2021/11/02 14:35:32;;;;;;;2.35;2.15;;;;;16.80;99677.00;;;;5049863;28;20673;-81
2021/11/02 14:38:04;;;;;;;1.88;1.67;;;;;16.80;99669.00;;;;5038922;28;20208;-81
2021/11/02 14:40:32;;;;;;;2.50;2.13;;;;;16.80;99675.00;;;;5030096;28;20211;-81
2021/11/02 14:43:01;;;;;;;2.40;2.15;;;;;16.80;99673.00;;;;5046985;28;20235;-79
2021/11/02 14:45:40;;;;;;;2.08;1.88;;;;;16.70;99677.00;;;;5050120;28;20204;-79
2021/11/02 14:48:39;;;;;;;2.10;1.90;;;;;16.70;99680.00;;;;5048869;28;20195;-79
2021/11/02 14:51:22;;;;;;;2.33;1.92;;;;;16.70;99678.00;;;;5049356;28;20712;-79
2021/11/02 14:53:50;;;;;;;1.80;1.65;;;;;16.70;99675.00;;;;5049907;28;20648;-79
2021/11/02 14:56:31;;;;;;;2.00;1.80;;;;;16.60;99684.00;;;;5049791;28;20211;-79
2021/11/02 14:58:58;;;;;;;2.35;1.85;;;;;16.70;99676.00;;;;5041123;28;20710;-79
2021/11/02 15:02:16;;;;;;;2.08;1.70;;;;;16.60;99680.00;;;;5029794;28;20202;-82
2021/11/02 15:04:44;;;;;;;2.65;1.70;;;;;16.70;99689.00;;;;5018778;28;20231;-81
2021/11/02 15:07:16;;;;;;;6.13;2.20;;;;;16.60;99689.00;;;;5049193;28;20210;-80
2021/11/02 15:09:45;;;;;;;2.42;2.22;;;;;16.60;99688.00;;;;5032572;28;20204;-80
2021/11/02 15:12:12;;;;;;;2.35;2.15;;;;;16.60;99694.00;;;;5029077;28;20231;-80
2021/11/02 15:14:41;;;;;;;2.30;1.98;;;;;16.60;99693.00;;;;5029112;28;20204;-81
2021/11/02 15:17:11;;;;;;;1.98;1.73;;;;;16.60;99693.00;;;;5042554;28;20992;-81
2021/11/02 15:19:40;;;;;;;2.30;1.92;;;;;16.60;99693.00;;;;5043992;28;20199;-81
2021/11/02 15:22:10;;;;;;;1.63;1.52;;;;;16.60;99691.00;;;;5039712;28;20192;-81
2021/11/02 15:24:41;;;;;;;2.47;1.77;;;;;16.50;99699.00;;;;5029655;28;20689;-80
2021/11/02 15:27:11;;;;;;;1.88;1.70;;;;;16.50;99701.00;;;;5041855;28;20199;-80
2021/11/02 15:29:40;;;;;;;2.50;2.10;;;;;16.50;99698.00;;;;5049713;28;20204;-80
2021/11/02 15:32:10;;;;;;;1.88;1.77;;;;;16.50;99704.00;;;;5047054;28;20227;-80
2021/11/02 15:34:42;;;;;;;1.70;1.60;;;;;16.40;99701.00;;;;5028214;28;20298;-81
2021/11/02 15:37:11;;;;;;;1.50;1.40;;;;;16.40;99701.00;;;;5031746;28;20291;-81
2021/11/02 15:39:40;;;;;;;1.98;1.70;;;;;16.40;99706.00;;;;5033241;28;20212;-81
2021/11/02 15:42:22;;;;;;;1.27;1.17;;;;;16.20;99709.00;;;;5028605;28;20204;-81
2021/11/02 15:44:53;;;;;;;1.48;1.10;;;;;16.30;99715.00;;;;5029179;28;20204;-81
2021/11/02 15:47:21;;;;;;;2.60;1.17;;;;;16.20;99717.00;;;;5028654;28;20223;-80
2021/11/02 15:49:55;;;;;;;1.23;1.02;;;;;16.20;99716.00;;;;5029264;28;20232;-81
2021/11/02 15:52:23;;;;;;;0.82;0.80;;;;;16.20;99721.00;;;;5028813;28;20223;-81
2021/11/02 15:54:51;;;;;;;1.45;1.10;;;;;16.20;99725.00;;;;5038727;28;20196;-81
2021/11/02 15:57:19;;;;;;;0.80;0.75;;;;;16.20;99726.00;;;;5028921;28;20200;-80
2021/11/02 15:59:59;;;;;;;1.10;0.70;;;;;16.10;99733.00;;;;5034380;28;20192;-81
2021/11/02 16:02:35;;;;;;;1.23;0.90;;;;;16.00;99732.00;;;;5048504;28;20199;-81
2021/11/02 16:05:05;;;;;;;1.55;0.93;;;;;16.00;99732.00;;;;5035808;28;20227;-81
2021/11/02 16:07:33;;;;;;;0.88;0.65;;;;;16.00;99726.00;;;;5036230;28;20207;-81
2021/11/02 16:10:02;;;;;;;1.20;0.77;;;;;16.00;99736.00;;;;5036430;28;20196;-81
2021/11/02 16:12:32;;;;;;;0.95;0.85;;;;;15.90;99743.00;;;;5048118;28;20227;-80
2021/11/02 16:15:12;;;;;;;1.00;0.77;;;;;15.90;99739.00;;;;5028471;28;20734;-81
2021/11/02 16:17:42;;;;;;;1.15;0.82;;;;;15.90;99743.00;;;;5029559;28;20206;-81
2021/11/02 16:20:19;;;;;;;0.85;0.73;;;;;15.80;99744.00;;;;5028262;28;21075;-81
2021/11/02 16:22:50;;;;;;;1.23;0.73;;;;;15.80;99749.00;;;;5028959;28;20196;-81
2021/11/02 16:25:18;;;;;;;0.65;0.55;;;;;15.80;99744.00;;;;5048496;28;20204;-81
2021/11/02 16:27:59;;;;;;;0.82;0.68;;;;;15.70;99749.00;;;;5044984;28;20846;-81
2021/11/02 16:30:30;;;;;;;1.05;0.88;;;;;15.80;99750.00;;;;5031879;28;20550;-80
2021/11/02 16:32:58;;;;;;;0.68;0.50;;;;;15.80;99742.00;;;;5028530;28;20223;-81
2021/11/02 16:35:40;;;;;;;0.60;0.55;;;;;15.70;99754.00;;;;5031467;28;20216;-81
2021/11/02 16:38:33;;;;;;;1.15;0.73;;;;;15.60;99756.00;;;;5047892;28;20210;-81
2021/11/02 16:41:04;;;;;;;1.13;0.60;;;;;15.70;99755.00;;;;5039001;28;20196;-82
2021/11/02 16:43:36;;;;;;;1.33;0.80;;;;;15.70;99754.00;;;;5033100;28;20287;-81
2021/11/02 16:46:07;;;;;;;1.48;0.77;;;;;15.70;99753.00;;;;5031828;28;20198;-81
2021/11/02 16:48:36;;;;;;;0.80;0.80;;;;;15.70;99761.00;;;;5039745;28;20257;-80
2021/11/02 16:51:05;;;;;;;1.55;0.60;;;;;15.70;99763.00;;;;5048060;28;20214;-80
2021/11/02 16:53:32;;;;;;;1.40;1.00;;;;;15.70;99767.00;;;;5043608;28;20199;-81
2021/11/02 16:56:08;;;;;;;0.98;0.50;;;;;15.60;99767.00;;;;5040454;28;20200;-81